Campanya Meteocatpedra
Centenari de l'SMC: 100 anys mirant el cel

Dades de l'estació automàtica Canaletes

?
?

Resum diari

22:00 TU
Dades diàries de l'estació meteorològica
Temperatura mitjana 17.7 °C
Temperatura màxima 24.9 °C 14:33 TU
Temperatura mínima 12.6 °C 2:30 TU
Humitat relativa mitjana 69%
Precipitació acumulada 0.0 mm
Ratxa màxima del vent (2 m) 24.5 km/h - 318º 11:49 TU
Irradiació solar global 18.7 MJ/m2

El tram horari està expressat en Temps Universal (TU). Cal sumar una hora en horari d'hivern i dues en horari d'estiu per passar a l'hora oficial.

Canaletes

Metadades estació meteorològica
Municipi Mediona
Comarca Alt Penedès
Altitud 325 m
Data alta 17.05.2002
Estat actual Operativa
Dades de període
Període
TU
TM
°C
TX
°C
TN
°C
HRM
%
PPT
mm
VVM (2 m)
km/h
DVM (2 m)
graus
VVX (2 m)
km/h
RS
W/m2
00:00 - 00:30 15.5 16.0 14.7 78 0.0 2.5 42 7.2 0
00:30 - 01:00 15.8 16.4 14.7 74 0.0 3.6 46 9.4 0
01:00 - 01:30 13.8 14.7 13.3 87 0.0 3.2 28 7.9 0
01:30 - 02:00 13.9 14.8 13.0 86 0.0 2.2 18 6.1 0
02:00 - 02:30 13.4 14.3 12.6 87 0.0 1.8 159 6.1 0
02:30 - 03:00 13.8 15.0 12.6 83 0.0 2.9 336 8.6 0
03:00 - 03:30 14.6 15.0 13.8 77 0.0 4.0 321 9.0 0
03:30 - 04:00 15.2 15.6 14.8 72 0.0 6.1 327 14.8 0
04:00 - 04:30 15.2 15.4 15.0 72 0.0 6.1 329 16.6 0
04:30 - 05:00 14.6 15.0 14.3 75 0.0 5.8 333 16.6 0
05:00 - 05:30 14.4 15.0 14.2 74 0.0 7.6 324 20.2 0
05:30 - 06:00 15.0 15.1 14.8 70 0.0 4.7 324 16.6 12
06:00 - 06:30 14.9 15.0 14.8 71 0.0 5.4 327 13.3 54
06:30 - 07:00 15.4 15.6 14.9 70 0.0 4.0 343 15.1 145
07:00 - 07:30 15.4 15.5 15.4 71 0.0 3.2 79 11.9 141
07:30 - 08:00 15.8 15.9 15.5 71 0.0 5.0 346 19.1 196
08:00 - 08:30 16.4 17.0 15.9 69 0.0 7.2 324 17.6 316
08:30 - 09:00 17.5 18.1 16.8 66 0.0 4.3 49 19.1 479
09:00 - 09:30 17.9 18.9 17.5 64 0.0 4.7 348 18.0 462
09:30 - 10:00 18.7 19.2 18.3 61 0.0 9.4 333 19.4 612
10:00 - 10:30 19.7 20.2 18.7 58 0.0 7.6 343 17.3 701
10:30 - 11:00 20.4 21.3 19.7 56 0.0 6.1 345 19.1 647
11:00 - 11:30 21.3 21.6 21.0 54 0.0 10.4 339 23.0 730
11:30 - 12:00 21.7 22.4 21.3 52 0.0 11.9 323 24.5 838
12:00 - 12:30 22.7 23.1 22.1 48 0.0 10.1 281 22.0 818
12:30 - 13:00 23.0 23.5 22.6 47 0.0 6.8 313 20.2 786
13:00 - 13:30 23.2 23.9 22.2 46 0.0 7.9 330 18.0 664
13:30 - 14:00 23.5 23.8 23.1 45 0.0 7.6 311 16.2 693
14:00 - 14:30 24.1 24.3 23.7 40 0.0 9.4 267 22.7 632
14:30 - 15:00 24.1 24.9 22.8 42 0.0 9.0 228 22.0 431
15:00 - 15:30 22.6 23.0 22.3 54 0.0 11.2 187 19.1 363
15:30 - 16:00 22.0 22.7 21.4 57 0.0 10.1 183 24.5 263
16:00 - 16:30 21.6 22.0 21.3 59 0.0 10.1 192 18.4 240
16:30 - 17:00 21.2 21.5 20.9 61 0.0 10.1 189 17.6 159
17:00 - 17:30 20.6 20.9 20.3 63 0.0 5.8 196 13.7 69
17:30 - 18:00 19.5 20.3 18.0 70 0.0 2.2 239 5.8 6
18:00 - 18:30 18.1 18.3 17.7 82 0.0 5.4 72 13.0 0
18:30 - 19:00 17.5 18.0 16.9 82 0.0 5.8 57 12.2 0
19:00 - 19:30 16.7 16.8 16.4 82 0.0 4.7 49 14.0 0
19:30 - 20:00 16.1 16.4 15.7 82 0.0 2.9 55 11.5 0
20:00 - 20:30 15.5 15.7 15.4 83 0.0 2.2 5 9.0 0
20:30 - 21:00 15.3 15.8 15.0 80 0.0 2.2 46 7.9 0
21:00 - 21:30 14.3 15.0 14.0 84 0.0 1.8 313 5.4 0
21:30 - 22:00 13.2 14.2 13.0 90 0.0 4.0 325 7.6 0
22:00 - 22:30 13.1 13.4 12.9 90 0.0 3.6 330 6.5 0

Les dades en taronja només han passat un control de qualitat automàtic. Resta pendent la seva validació definitiva.